sensor_id;sensor_type;location;lat;lon;timestamp;P1;durP1;ratioP1;P2;durP2;ratioP2
9771;SDS011;4925;52.588;13.370;2024-02-14T00:00:00;7.17;;;5.20;;
9771;SDS011;4925;52.588;13.370;2024-02-14T00:02:27;7.47;;;5.10;;
9771;SDS011;4925;52.588;13.370;2024-02-14T00:04:53;6.47;;;4.50;;
9771;SDS011;4925;52.588;13.370;2024-02-14T00:07:19;8.13;;;4.23;;
9771;SDS011;4925;52.588;13.370;2024-02-14T00:09:46;6.07;;;4.27;;
9771;SDS011;4925;52.588;13.370;2024-02-14T00:12:12;5.30;;;3.73;;
9771;SDS011;4925;52.588;13.370;2024-02-14T00:14:38;7.77;;;4.13;;
9771;SDS011;4925;52.588;13.370;2024-02-14T00:17:04;4.77;;;4.03;;
9771;SDS011;4925;52.588;13.370;2024-02-14T00:19:31;5.90;;;4.10;;
9771;SDS011;4925;52.588;13.370;2024-02-14T00:21:57;5.37;;;3.60;;
9771;SDS011;4925;52.588;13.370;2024-02-14T00:24:22;5.57;;;3.90;;
9771;SDS011;4925;52.588;13.370;2024-02-14T00:26:49;6.40;;;4.17;;
9771;SDS011;4925;52.588;13.370;2024-02-14T00:29:16;5.93;;;4.37;;
9771;SDS011;4925;52.588;13.370;2024-02-14T00:31:43;4.83;;;3.87;;
9771;SDS011;4925;52.588;13.370;2024-02-14T00:34:09;5.33;;;3.80;;
9771;SDS011;4925;52.588;13.370;2024-02-14T00:36:35;6.27;;;4.17;;
9771;SDS011;4925;52.588;13.370;2024-02-14T00:39:01;4.23;;;3.60;;
9771;SDS011;4925;52.588;13.370;2024-02-14T00:41:27;5.30;;;3.37;;
9771;SDS011;4925;52.588;13.370;2024-02-14T00:43:55;5.77;;;3.93;;
9771;SDS011;4925;52.588;13.370;2024-02-14T00:46:22;5.87;;;3.83;;
9771;SDS011;4925;52.588;13.370;2024-02-14T00:48:48;6.03;;;4.37;;
9771;SDS011;4925;52.588;13.370;2024-02-14T00:51:13;5.40;;;3.20;;
9771;SDS011;4925;52.588;13.370;2024-02-14T00:53:39;6.30;;;3.50;;
9771;SDS011;4925;52.588;13.370;2024-02-14T00:56:05;5.23;;;3.60;;
9771;SDS011;4925;52.588;13.370;2024-02-14T00:58:32;4.43;;;3.13;;
9771;SDS011;4925;52.588;13.370;2024-02-14T01:00:57;6.23;;;3.80;;
9771;SDS011;4925;52.588;13.370;2024-02-14T01:03:23;4.40;;;3.57;;
9771;SDS011;4925;52.588;13.370;2024-02-14T01:05:49;6.07;;;4.33;;
9771;SDS011;4925;52.588;13.370;2024-02-14T01:08:15;4.53;;;3.37;;
9771;SDS011;4925;52.588;13.370;2024-02-14T01:10:42;6.03;;;3.73;;
9771;SDS011;4925;52.588;13.370;2024-02-14T01:13:07;4.47;;;3.70;;
9771;SDS011;4925;52.588;13.370;2024-02-14T01:15:33;7.63;;;4.07;;
9771;SDS011;4925;52.588;13.370;2024-02-14T01:17:59;5.20;;;3.60;;
9771;SDS011;4925;52.588;13.370;2024-02-14T01:20:25;6.20;;;4.07;;
9771;SDS011;4925;52.588;13.370;2024-02-14T01:22:51;6.30;;;3.73;;
9771;SDS011;4925;52.588;13.370;2024-02-14T01:25:16;5.57;;;4.23;;
9771;SDS011;4925;52.588;13.370;2024-02-14T01:27:42;5.57;;;3.77;;
9771;SDS011;4925;52.588;13.370;2024-02-14T01:30:08;5.30;;;3.27;;
9771;SDS011;4925;52.588;13.370;2024-02-14T01:32:35;9.00;;;4.37;;
9771;SDS011;4925;52.588;13.370;2024-02-14T01:35:00;4.77;;;3.40;;
9771;SDS011;4925;52.588;13.370;2024-02-14T01:37:26;5.37;;;3.50;;
9771;SDS011;4925;52.588;13.370;2024-02-14T01:39:54;8.87;;;3.87;;
9771;SDS011;4925;52.588;13.370;2024-02-14T01:42:22;6.17;;;3.53;;
9771;SDS011;4925;52.588;13.370;2024-02-14T01:44:49;4.77;;;3.70;;
9771;SDS011;4925;52.588;13.370;2024-02-14T01:47:14;3.93;;;3.57;;
9771;SDS011;4925;52.588;13.370;2024-02-14T01:49:40;4.43;;;3.53;;
9771;SDS011;4925;52.588;13.370;2024-02-14T01:52:09;4.53;;;3.90;;
9771;SDS011;4925;52.588;13.370;2024-02-14T01:54:35;5.80;;;3.83;;
9771;SDS011;4925;52.588;13.370;2024-02-14T01:57:01;8.40;;;4.37;;
9771;SDS011;4925;52.588;13.370;2024-02-14T01:59:27;3.83;;;3.27;;
9771;SDS011;4925;52.588;13.370;2024-02-14T02:01:53;5.67;;;3.97;;
9771;SDS011;4925;52.588;13.370;2024-02-14T02:04:19;4.30;;;3.33;;
9771;SDS011;4925;52.588;13.370;2024-02-14T02:06:45;8.87;;;3.60;;
9771;SDS011;4925;52.588;13.370;2024-02-14T02:09:11;3.73;;;3.33;;
9771;SDS011;4925;52.588;13.370;2024-02-14T02:11:46;6.17;;;3.47;;
9771;SDS011;4925;52.588;13.370;2024-02-14T02:14:15;4.27;;;3.40;;
9771;SDS011;4925;52.588;13.370;2024-02-14T02:16:41;6.70;;;3.73;;
9771;SDS011;4925;52.588;13.370;2024-02-14T02:19:10;5.00;;;3.50;;
9771;SDS011;4925;52.588;13.370;2024-02-14T02:21:37;4.40;;;3.60;;
9771;SDS011;4925;52.588;13.370;2024-02-14T02:24:03;4.23;;;3.47;;
9771;SDS011;4925;52.588;13.370;2024-02-14T02:26:32;4.30;;;3.33;;
9771;SDS011;4925;52.588;13.370;2024-02-14T02:29:01;4.53;;;3.50;;
9771;SDS011;4925;52.588;13.370;2024-02-14T02:31:26;5.87;;;3.57;;
9771;SDS011;4925;52.588;13.370;2024-02-14T02:33:52;6.80;;;3.53;;
9771;SDS011;4925;52.588;13.370;2024-02-14T02:36:18;4.97;;;3.70;;
9771;SDS011;4925;52.588;13.370;2024-02-14T02:38:43;3.93;;;3.27;;
9771;SDS011;4925;52.588;13.370;2024-02-14T02:41:10;7.50;;;3.90;;
9771;SDS011;4925;52.588;13.370;2024-02-14T02:43:36;8.80;;;4.20;;
9771;SDS011;4925;52.588;13.370;2024-02-14T02:46:02;3.10;;;2.87;;
9771;SDS011;4925;52.588;13.370;2024-02-14T02:48:28;3.53;;;3.23;;
9771;SDS011;4925;52.588;13.370;2024-02-14T02:50:56;4.93;;;3.90;;
9771;SDS011;4925;52.588;13.370;2024-02-14T02:53:22;4.30;;;3.17;;
9771;SDS011;4925;52.588;13.370;2024-02-14T02:55:48;5.90;;;3.37;;
9771;SDS011;4925;52.588;13.370;2024-02-14T02:58:16;4.50;;;3.70;;
9771;SDS011;4925;52.588;13.370;2024-02-14T03:00:42;4.93;;;3.73;;
9771;SDS011;4925;52.588;13.370;2024-02-14T03:03:09;7.97;;;4.07;;
9771;SDS011;4925;52.588;13.370;2024-02-14T03:05:35;4.20;;;3.77;;
9771;SDS011;4925;52.588;13.370;2024-02-14T03:08:02;7.00;;;4.20;;
9771;SDS011;4925;52.588;13.370;2024-02-14T03:10:27;8.40;;;3.90;;
9771;SDS011;4925;52.588;13.370;2024-02-14T03:12:54;6.53;;;4.40;;
9771;SDS011;4925;52.588;13.370;2024-02-14T03:15:20;6.43;;;4.00;;
9771;SDS011;4925;52.588;13.370;2024-02-14T03:17:46;4.43;;;3.90;;
9771;SDS011;4925;52.588;13.370;2024-02-14T03:20:12;6.00;;;4.00;;
9771;SDS011;4925;52.588;13.370;2024-02-14T03:22:39;6.03;;;4.17;;
9771;SDS011;4925;52.588;13.370;2024-02-14T03:25:11;9.97;;;4.60;;
9771;SDS011;4925;52.588;13.370;2024-02-14T03:27:41;7.40;;;3.77;;
9771;SDS011;4925;52.588;13.370;2024-02-14T03:30:10;6.20;;;4.03;;
9771;SDS011;4925;52.588;13.370;2024-02-14T03:32:38;5.27;;;3.43;;
9771;SDS011;4925;52.588;13.370;2024-02-14T03:35:04;4.13;;;3.70;;
9771;SDS011;4925;52.588;13.370;2024-02-14T03:37:31;5.03;;;3.83;;
9771;SDS011;4925;52.588;13.370;2024-02-14T03:39:57;8.87;;;3.70;;
9771;SDS011;4925;52.588;13.370;2024-02-14T03:42:28;6.20;;;4.10;;
9771;SDS011;4925;52.588;13.370;2024-02-14T03:44:54;12.13;;;4.47;;
9771;SDS011;4925;52.588;13.370;2024-02-14T03:47:28;7.17;;;3.97;;
9771;SDS011;4925;52.588;13.370;2024-02-14T03:49:58;4.33;;;3.70;;
9771;SDS011;4925;52.588;13.370;2024-02-14T03:52:25;5.00;;;3.97;;
9771;SDS011;4925;52.588;13.370;2024-02-14T03:54:51;6.20;;;3.73;;
9771;SDS011;4925;52.588;13.370;2024-02-14T03:57:17;4.70;;;3.80;;
9771;SDS011;4925;52.588;13.370;2024-02-14T03:59:43;5.33;;;3.53;;
9771;SDS011;4925;52.588;13.370;2024-02-14T04:02:09;5.50;;;3.93;;
9771;SDS011;4925;52.588;13.370;2024-02-14T04:04:41;4.43;;;3.73;;
9771;SDS011;4925;52.588;13.370;2024-02-14T04:07:07;8.97;;;4.03;;
9771;SDS011;4925;52.588;13.370;2024-02-14T04:09:34;4.60;;;3.77;;
9771;SDS011;4925;52.588;13.370;2024-02-14T04:12:00;5.47;;;3.90;;
9771;SDS011;4925;52.588;13.370;2024-02-14T04:14:26;5.60;;;4.17;;
9771;SDS011;4925;52.588;13.370;2024-02-14T04:16:52;8.30;;;4.57;;
9771;SDS011;4925;52.588;13.370;2024-02-14T04:19:20;5.57;;;4.47;;
9771;SDS011;4925;52.588;13.370;2024-02-14T04:21:45;4.07;;;3.70;;
9771;SDS011;4925;52.588;13.370;2024-02-14T04:24:11;5.27;;;3.93;;
9771;SDS011;4925;52.588;13.370;2024-02-14T04:26:38;5.43;;;3.80;;
9771;SDS011;4925;52.588;13.370;2024-02-14T04:29:04;8.57;;;4.03;;
9771;SDS011;4925;52.588;13.370;2024-02-14T04:31:30;6.30;;;4.50;;
9771;SDS011;4925;52.588;13.370;2024-02-14T04:33:58;5.37;;;3.93;;
9771;SDS011;4925;52.588;13.370;2024-02-14T04:36:24;6.23;;;3.83;;
9771;SDS011;4925;52.588;13.370;2024-02-14T04:38:50;6.47;;;3.93;;
9771;SDS011;4925;52.588;13.370;2024-02-14T04:41:20;6.80;;;3.97;;
9771;SDS011;4925;52.588;13.370;2024-02-14T04:43:46;4.27;;;3.87;;
9771;SDS011;4925;52.588;13.370;2024-02-14T04:46:13;8.20;;;3.90;;
9771;SDS011;4925;52.588;13.370;2024-02-14T04:48:38;5.57;;;4.03;;
9771;SDS011;4925;52.588;13.370;2024-02-14T04:51:04;4.53;;;4.13;;
9771;SDS011;4925;52.588;13.370;2024-02-14T04:53:30;5.07;;;3.87;;
9771;SDS011;4925;52.588;13.370;2024-02-14T04:55:56;7.77;;;3.83;;
9771;SDS011;4925;52.588;13.370;2024-02-14T04:58:23;7.77;;;4.20;;
9771;SDS011;4925;52.588;13.370;2024-02-14T05:00:48;7.23;;;3.73;;
9771;SDS011;4925;52.588;13.370;2024-02-14T05:03:14;5.97;;;4.03;;
9771;SDS011;4925;52.588;13.370;2024-02-14T05:05:40;4.50;;;3.50;;
9771;SDS011;4925;52.588;13.370;2024-02-14T05:08:06;4.27;;;3.50;;
9771;SDS011;4925;52.588;13.370;2024-02-14T05:10:33;5.53;;;4.17;;
9771;SDS011;4925;52.588;13.370;2024-02-14T05:12:59;9.20;;;5.03;;
9771;SDS011;4925;52.588;13.370;2024-02-14T05:15:26;9.27;;;4.47;;
9771;SDS011;4925;52.588;13.370;2024-02-14T05:17:52;4.63;;;4.00;;
9771;SDS011;4925;52.588;13.370;2024-02-14T05:20:18;6.80;;;4.47;;
9771;SDS011;4925;52.588;13.370;2024-02-14T05:22:44;5.73;;;4.40;;
9771;SDS011;4925;52.588;13.370;2024-02-14T05:25:09;8.00;;;5.00;;
9771;SDS011;4925;52.588;13.370;2024-02-14T05:27:35;10.67;;;4.90;;
9771;SDS011;4925;52.588;13.370;2024-02-14T05:30:05;5.30;;;4.23;;
9771;SDS011;4925;52.588;13.370;2024-02-14T05:32:31;6.50;;;4.53;;
9771;SDS011;4925;52.588;13.370;2024-02-14T05:34:57;5.77;;;4.57;;
9771;SDS011;4925;52.588;13.370;2024-02-14T05:37:23;5.20;;;4.70;;
9771;SDS011;4925;52.588;13.370;2024-02-14T05:39:50;7.40;;;4.70;;
9771;SDS011;4925;52.588;13.370;2024-02-14T05:42:16;7.50;;;4.70;;
9771;SDS011;4925;52.588;13.370;2024-02-14T05:44:42;8.73;;;4.83;;
9771;SDS011;4925;52.588;13.370;2024-02-14T05:47:08;7.97;;;4.73;;
9771;SDS011;4925;52.588;13.370;2024-02-14T05:49:35;9.17;;;4.67;;
9771;SDS011;4925;52.588;13.370;2024-02-14T05:52:03;6.77;;;4.63;;
9771;SDS011;4925;52.588;13.370;2024-02-14T05:54:32;9.30;;;4.87;;
9771;SDS011;4925;52.588;13.370;2024-02-14T05:56:58;8.13;;;4.90;;
9771;SDS011;4925;52.588;13.370;2024-02-14T05:59:29;7.33;;;4.60;;
9771;SDS011;4925;52.588;13.370;2024-02-14T06:01:55;7.53;;;4.37;;
9771;SDS011;4925;52.588;13.370;2024-02-14T06:04:21;9.87;;;4.60;;
9771;SDS011;4925;52.588;13.370;2024-02-14T06:06:48;5.00;;;4.13;;
9771;SDS011;4925;52.588;13.370;2024-02-14T06:09:14;8.57;;;4.50;;
9771;SDS011;4925;52.588;13.370;2024-02-14T06:11:40;7.23;;;4.70;;
9771;SDS011;4925;52.588;13.370;2024-02-14T06:14:07;11.53;;;4.73;;
9771;SDS011;4925;52.588;13.370;2024-02-14T06:16:35;8.37;;;4.80;;
9771;SDS011;4925;52.588;13.370;2024-02-14T06:19:02;10.10;;;4.70;;
9771;SDS011;4925;52.588;13.370;2024-02-14T06:21:29;5.10;;;4.57;;
9771;SDS011;4925;52.588;13.370;2024-02-14T06:23:55;8.13;;;4.73;;
9771;SDS011;4925;52.588;13.370;2024-02-14T06:26:23;5.60;;;4.23;;
9771;SDS011;4925;52.588;13.370;2024-02-14T06:28:49;7.57;;;4.37;;
9771;SDS011;4925;52.588;13.370;2024-02-14T06:31:19;5.77;;;4.20;;
9771;SDS011;4925;52.588;13.370;2024-02-14T06:34:05;6.20;;;4.20;;
9771;SDS011;4925;52.588;13.370;2024-02-14T06:36:33;6.13;;;4.20;;
9771;SDS011;4925;52.588;13.370;2024-02-14T06:38:59;6.70;;;4.40;;
9771;SDS011;4925;52.588;13.370;2024-02-14T06:41:25;7.33;;;4.50;;
9771;SDS011;4925;52.588;13.370;2024-02-14T06:43:51;7.83;;;5.20;;
9771;SDS011;4925;52.588;13.370;2024-02-14T06:46:17;8.07;;;4.43;;
9771;SDS011;4925;52.588;13.370;2024-02-14T06:48:43;9.53;;;4.33;;
9771;SDS011;4925;52.588;13.370;2024-02-14T06:51:10;9.80;;;4.63;;
9771;SDS011;4925;52.588;13.370;2024-02-14T06:53:36;5.57;;;4.37;;
9771;SDS011;4925;52.588;13.370;2024-02-14T06:56:02;7.40;;;4.00;;
9771;SDS011;4925;52.588;13.370;2024-02-14T06:58:28;6.13;;;4.43;;
9771;SDS011;4925;52.588;13.370;2024-02-14T07:00:55;26.63;;;8.23;;
9771;SDS011;4925;52.588;13.370;2024-02-14T07:03:21;6.70;;;4.70;;
9771;SDS011;4925;52.588;13.370;2024-02-14T07:05:47;7.20;;;4.03;;
9771;SDS011;4925;52.588;13.370;2024-02-14T07:08:16;6.27;;;3.83;;
9771;SDS011;4925;52.588;13.370;2024-02-14T07:10:43;5.20;;;3.50;;
9771;SDS011;4925;52.588;13.370;2024-02-14T07:13:09;7.27;;;4.60;;
9771;SDS011;4925;52.588;13.370;2024-02-14T07:15:36;8.37;;;4.03;;
9771;SDS011;4925;52.588;13.370;2024-02-14T07:18:02;7.93;;;4.07;;
9771;SDS011;4925;52.588;13.370;2024-02-14T07:20:28;5.47;;;3.80;;
9771;SDS011;4925;52.588;13.370;2024-02-14T07:22:56;7.10;;;3.43;;
9771;SDS011;4925;52.588;13.370;2024-02-14T07:25:23;6.10;;;4.07;;
9771;SDS011;4925;52.588;13.370;2024-02-14T07:27:49;6.90;;;3.73;;
9771;SDS011;4925;52.588;13.370;2024-02-14T07:30:15;5.80;;;3.47;;
9771;SDS011;4925;52.588;13.370;2024-02-14T07:32:42;11.17;;;3.80;;
9771;SDS011;4925;52.588;13.370;2024-02-14T07:35:09;6.13;;;3.90;;
9771;SDS011;4925;52.588;13.370;2024-02-14T07:37:36;6.93;;;3.20;;
9771;SDS011;4925;52.588;13.370;2024-02-14T07:40:03;5.23;;;3.73;;
9771;SDS011;4925;52.588;13.370;2024-02-14T07:42:29;8.23;;;4.03;;
9771;SDS011;4925;52.588;13.370;2024-02-14T07:44:55;13.17;;;4.67;;
9771;SDS011;4925;52.588;13.370;2024-02-14T07:47:21;9.57;;;4.07;;
9771;SDS011;4925;52.588;13.370;2024-02-14T07:49:48;6.10;;;4.13;;
9771;SDS011;4925;52.588;13.370;2024-02-14T07:52:14;4.83;;;4.03;;
9771;SDS011;4925;52.588;13.370;2024-02-14T07:54:39;7.97;;;4.03;;
9771;SDS011;4925;52.588;13.370;2024-02-14T07:57:06;5.77;;;4.20;;
9771;SDS011;4925;52.588;13.370;2024-02-14T07:59:31;10.43;;;5.27;;
9771;SDS011;4925;52.588;13.370;2024-02-14T08:01:57;6.30;;;4.67;;
9771;SDS011;4925;52.588;13.370;2024-02-14T08:04:23;7.67;;;4.07;;
9771;SDS011;4925;52.588;13.370;2024-02-14T08:06:49;7.37;;;3.70;;
9771;SDS011;4925;52.588;13.370;2024-02-14T08:09:15;8.77;;;3.47;;
9771;SDS011;4925;52.588;13.370;2024-02-14T08:11:42;4.47;;;3.47;;
9771;SDS011;4925;52.588;13.370;2024-02-14T08:14:07;7.27;;;3.30;;
9771;SDS011;4925;52.588;13.370;2024-02-14T08:16:33;23.20;;;4.13;;
9771;SDS011;4925;52.588;13.370;2024-02-14T08:19:02;5.57;;;3.50;;
9771;SDS011;4925;52.588;13.370;2024-02-14T08:21:28;9.10;;;4.77;;
9771;SDS011;4925;52.588;13.370;2024-02-14T08:23:55;5.70;;;3.70;;
9771;SDS011;4925;52.588;13.370;2024-02-14T08:26:21;5.73;;;3.77;;
9771;SDS011;4925;52.588;13.370;2024-02-14T08:28:47;5.40;;;3.87;;
9771;SDS011;4925;52.588;13.370;2024-02-14T08:31:14;6.77;;;3.50;;
9771;SDS011;4925;52.588;13.370;2024-02-14T08:33:40;4.73;;;3.33;;
9771;SDS011;4925;52.588;13.370;2024-02-14T08:36:06;4.83;;;3.80;;
9771;SDS011;4925;52.588;13.370;2024-02-14T08:38:35;6.77;;;3.97;;
9771;SDS011;4925;52.588;13.370;2024-02-14T08:41:01;6.27;;;3.27;;
9771;SDS011;4925;52.588;13.370;2024-02-14T08:43:29;3.40;;;3.10;;
9771;SDS011;4925;52.588;13.370;2024-02-14T08:45:55;4.43;;;3.40;;
9771;SDS011;4925;52.588;13.370;2024-02-14T08:48:23;3.77;;;3.00;;
9771;SDS011;4925;52.588;13.370;2024-02-14T08:50:49;5.30;;;3.40;;
9771;SDS011;4925;52.588;13.370;2024-02-14T08:53:15;6.30;;;3.23;;
9771;SDS011;4925;52.588;13.370;2024-02-14T08:55:47;5.87;;;3.53;;
9771;SDS011;4925;52.588;13.370;2024-02-14T08:58:13;9.67;;;3.53;;
9771;SDS011;4925;52.588;13.370;2024-02-14T09:00:39;3.90;;;2.67;;
9771;SDS011;4925;52.588;13.370;2024-02-14T09:03:05;5.23;;;3.57;;
9771;SDS011;4925;52.588;13.370;2024-02-14T09:05:34;3.80;;;3.03;;
9771;SDS011;4925;52.588;13.370;2024-02-14T09:08:00;7.97;;;3.60;;
9771;SDS011;4925;52.588;13.370;2024-02-14T09:10:27;5.77;;;3.53;;
9771;SDS011;4925;52.588;13.370;2024-02-14T09:12:52;4.63;;;3.40;;
9771;SDS011;4925;52.588;13.370;2024-02-14T09:15:18;4.80;;;2.90;;
9771;SDS011;4925;52.588;13.370;2024-02-14T09:17:47;4.37;;;3.07;;
9771;SDS011;4925;52.588;13.370;2024-02-14T09:20:12;6.37;;;3.10;;
9771;SDS011;4925;52.588;13.370;2024-02-14T09:22:39;3.23;;;2.77;;
9771;SDS011;4925;52.588;13.370;2024-02-14T09:25:08;7.07;;;2.67;;
9771;SDS011;4925;52.588;13.370;2024-02-14T09:27:34;3.83;;;2.40;;
9771;SDS011;4925;52.588;13.370;2024-02-14T09:30:03;3.70;;;2.77;;
9771;SDS011;4925;52.588;13.370;2024-02-14T09:32:31;3.23;;;2.13;;
9771;SDS011;4925;52.588;13.370;2024-02-14T09:34:57;5.20;;;3.07;;
9771;SDS011;4925;52.588;13.370;2024-02-14T09:37:26;3.83;;;2.70;;
9771;SDS011;4925;52.588;13.370;2024-02-14T09:39:54;4.13;;;2.77;;
9771;SDS011;4925;52.588;13.370;2024-02-14T09:42:22;6.33;;;2.73;;
9771;SDS011;4925;52.588;13.370;2024-02-14T09:44:56;9.70;;;5.43;;
9771;SDS011;4925;52.588;13.370;2024-02-14T09:47:25;5.03;;;3.67;;
9771;SDS011;4925;52.588;13.370;2024-02-14T09:50:01;6.30;;;2.47;;
9771;SDS011;4925;52.588;13.370;2024-02-14T09:52:32;4.97;;;2.67;;
9771;SDS011;4925;52.588;13.370;2024-02-14T09:54:58;3.23;;;2.30;;
9771;SDS011;4925;52.588;13.370;2024-02-14T09:57:24;2.90;;;2.43;;
9771;SDS011;4925;52.588;13.370;2024-02-14T10:00:00;6.27;;;2.77;;
9771;SDS011;4925;52.588;13.370;2024-02-14T10:02:46;3.63;;;2.60;;
9771;SDS011;4925;52.588;13.370;2024-02-14T10:05:12;6.30;;;2.80;;
9771;SDS011;4925;52.588;13.370;2024-02-14T10:07:41;3.67;;;2.37;;
9771;SDS011;4925;52.588;13.370;2024-02-14T10:10:09;2.97;;;2.30;;
9771;SDS011;4925;52.588;13.370;2024-02-14T10:12:36;5.40;;;2.50;;
9771;SDS011;4925;52.588;13.370;2024-02-14T10:15:04;5.57;;;2.27;;
9771;SDS011;4925;52.588;13.370;2024-02-14T10:17:32;4.47;;;2.77;;
9771;SDS011;4925;52.588;13.370;2024-02-14T10:20:00;6.13;;;2.73;;
9771;SDS011;4925;52.588;13.370;2024-02-14T10:22:37;3.43;;;2.97;;
9771;SDS011;4925;52.588;13.370;2024-02-14T10:25:03;4.90;;;2.80;;
9771;SDS011;4925;52.588;13.370;2024-02-14T10:27:37;3.63;;;2.27;;
9771;SDS011;4925;52.588;13.370;2024-02-14T10:30:07;9.13;;;3.20;;
9771;SDS011;4925;52.588;13.370;2024-02-14T10:32:35;4.80;;;2.47;;
9771;SDS011;4925;52.588;13.370;2024-02-14T10:35:05;2.40;;;2.00;;
9771;SDS011;4925;52.588;13.370;2024-02-14T10:37:34;3.57;;;2.30;;
9771;SDS011;4925;52.588;13.370;2024-02-14T10:40:03;3.63;;;2.43;;
9771;SDS011;4925;52.588;13.370;2024-02-14T10:42:33;4.37;;;3.00;;
9771;SDS011;4925;52.588;13.370;2024-02-14T10:44:59;4.57;;;3.07;;
9771;SDS011;4925;52.588;13.370;2024-02-14T10:47:34;5.10;;;3.40;;
9771;SDS011;4925;52.588;13.370;2024-02-14T10:50:02;7.03;;;2.83;;
9771;SDS011;4925;52.588;13.370;2024-02-14T10:52:37;4.13;;;2.73;;
9771;SDS011;4925;52.588;13.370;2024-02-14T10:55:06;2.67;;;2.40;;
9771;SDS011;4925;52.588;13.370;2024-02-14T10:57:32;3.77;;;2.67;;
9771;SDS011;4925;52.588;13.370;2024-02-14T10:59:59;4.43;;;2.27;;
9771;SDS011;4925;52.588;13.370;2024-02-14T11:02:36;3.97;;;2.17;;
9771;SDS011;4925;52.588;13.370;2024-02-14T11:05:03;2.87;;;2.00;;
9771;SDS011;4925;52.588;13.370;2024-02-14T11:07:29;5.47;;;2.60;;
9771;SDS011;4925;52.588;13.370;2024-02-14T11:10:08;6.03;;;2.47;;
9771;SDS011;4925;52.588;13.370;2024-02-14T11:12:35;3.00;;;2.53;;
9771;SDS011;4925;52.588;13.370;2024-02-14T11:15:11;3.90;;;2.47;;
9771;SDS011;4925;52.588;13.370;2024-02-14T11:17:41;4.63;;;2.23;;
9771;SDS011;4925;52.588;13.370;2024-02-14T11:20:15;4.73;;;2.50;;
9771;SDS011;4925;52.588;13.370;2024-02-14T11:22:55;4.83;;;2.57;;
9771;SDS011;4925;52.588;13.370;2024-02-14T11:25:36;3.43;;;2.40;;
9771;SDS011;4925;52.588;13.370;2024-02-14T11:28:15;4.50;;;2.57;;
9771;SDS011;4925;52.588;13.370;2024-02-14T11:31:03;6.37;;;3.23;;
9771;SDS011;4925;52.588;13.370;2024-02-14T11:33:30;4.03;;;2.70;;
9771;SDS011;4925;52.588;13.370;2024-02-14T11:35:57;7.57;;;3.07;;
9771;SDS011;4925;52.588;13.370;2024-02-14T11:38:24;6.00;;;2.57;;
9771;SDS011;4925;52.588;13.370;2024-02-14T11:40:51;5.27;;;2.90;;
9771;SDS011;4925;52.588;13.370;2024-02-14T11:43:22;4.57;;;2.63;;
9771;SDS011;4925;52.588;13.370;2024-02-14T11:45:48;3.40;;;2.67;;
9771;SDS011;4925;52.588;13.370;2024-02-14T11:48:17;8.30;;;2.70;;
9771;SDS011;4925;52.588;13.370;2024-02-14T11:50:45;4.43;;;2.73;;
9771;SDS011;4925;52.588;13.370;2024-02-14T11:53:13;4.93;;;2.23;;
9771;SDS011;4925;52.588;13.370;2024-02-14T11:55:42;4.90;;;2.77;;
9771;SDS011;4925;52.588;13.370;2024-02-14T11:58:09;7.93;;;3.03;;
9771;SDS011;4925;52.588;13.370;2024-02-14T12:00:39;5.83;;;3.10;;
9771;SDS011;4925;52.588;13.370;2024-02-14T12:03:21;5.20;;;2.90;;
9771;SDS011;4925;52.588;13.370;2024-02-14T12:05:49;2.90;;;2.70;;
9771;SDS011;4925;52.588;13.370;2024-02-14T12:08:16;5.70;;;3.00;;
9771;SDS011;4925;52.588;13.370;2024-02-14T12:10:47;5.90;;;2.57;;
9771;SDS011;4925;52.588;13.370;2024-02-14T12:13:16;3.70;;;2.57;;
9771;SDS011;4925;52.588;13.370;2024-02-14T12:15:46;3.87;;;2.63;;
9771;SDS011;4925;52.588;13.370;2024-02-14T12:18:16;3.60;;;2.97;;
9771;SDS011;4925;52.588;13.370;2024-02-14T12:20:45;5.70;;;2.63;;
9771;SDS011;4925;52.588;13.370;2024-02-14T12:23:15;3.60;;;2.50;;
9771;SDS011;4925;52.588;13.370;2024-02-14T12:25:42;3.63;;;2.67;;
9771;SDS011;4925;52.588;13.370;2024-02-14T12:28:13;4.67;;;2.50;;
9771;SDS011;4925;52.588;13.370;2024-02-14T12:30:44;5.63;;;2.27;;
9771;SDS011;4925;52.588;13.370;2024-02-14T12:33:12;5.03;;;2.87;;
9771;SDS011;4925;52.588;13.370;2024-02-14T12:35:41;4.30;;;3.33;;
9771;SDS011;4925;52.588;13.370;2024-02-14T12:38:08;2.80;;;2.60;;
9771;SDS011;4925;52.588;13.370;2024-02-14T12:40:37;2.80;;;2.57;;
9771;SDS011;4925;52.588;13.370;2024-02-14T12:43:08;5.77;;;2.60;;
9771;SDS011;4925;52.588;13.370;2024-02-14T12:45:43;3.03;;;2.43;;
9771;SDS011;4925;52.588;13.370;2024-02-14T12:48:22;2.80;;;2.60;;
9771;SDS011;4925;52.588;13.370;2024-02-14T12:50:51;7.57;;;3.73;;
9771;SDS011;4925;52.588;13.370;2024-02-14T12:53:17;4.10;;;2.70;;
9771;SDS011;4925;52.588;13.370;2024-02-14T12:55:44;4.23;;;2.90;;
9771;SDS011;4925;52.588;13.370;2024-02-14T12:58:11;3.70;;;3.10;;
9771;SDS011;4925;52.588;13.370;2024-02-14T13:00:37;4.67;;;2.77;;
9771;SDS011;4925;52.588;13.370;2024-02-14T13:03:03;4.77;;;3.00;;
9771;SDS011;4925;52.588;13.370;2024-02-14T13:05:29;5.60;;;3.03;;
9771;SDS011;4925;52.588;13.370;2024-02-14T13:07:55;4.13;;;2.93;;
9771;SDS011;4925;52.588;13.370;2024-02-14T13:10:21;3.57;;;2.90;;
9771;SDS011;4925;52.588;13.370;2024-02-14T13:12:49;3.90;;;3.00;;
9771;SDS011;4925;52.588;13.370;2024-02-14T13:15:17;4.67;;;2.53;;
9771;SDS011;4925;52.588;13.370;2024-02-14T13:17:42;8.53;;;2.80;;
9771;SDS011;4925;52.588;13.370;2024-02-14T13:20:08;3.37;;;2.47;;
9771;SDS011;4925;52.588;13.370;2024-02-14T13:22:36;5.10;;;2.93;;
9771;SDS011;4925;52.588;13.370;2024-02-14T13:25:01;4.10;;;2.77;;
9771;SDS011;4925;52.588;13.370;2024-02-14T13:27:28;4.30;;;3.20;;
9771;SDS011;4925;52.588;13.370;2024-02-14T13:29:53;5.00;;;3.30;;
9771;SDS011;4925;52.588;13.370;2024-02-14T13:32:21;3.00;;;2.70;;
9771;SDS011;4925;52.588;13.370;2024-02-14T13:34:47;5.60;;;2.90;;
9771;SDS011;4925;52.588;13.370;2024-02-14T13:37:14;8.03;;;3.70;;
9771;SDS011;4925;52.588;13.370;2024-02-14T13:39:40;4.13;;;3.17;;
9771;SDS011;4925;52.588;13.370;2024-02-14T13:42:06;5.93;;;2.90;;
9771;SDS011;4925;52.588;13.370;2024-02-14T13:44:33;4.27;;;3.00;;
9771;SDS011;4925;52.588;13.370;2024-02-14T13:46:59;5.43;;;3.10;;
9771;SDS011;4925;52.588;13.370;2024-02-14T13:49:24;3.20;;;2.90;;
9771;SDS011;4925;52.588;13.370;2024-02-14T13:51:51;3.37;;;3.07;;
9771;SDS011;4925;52.588;13.370;2024-02-14T13:54:19;3.40;;;2.90;;
9771;SDS011;4925;52.588;13.370;2024-02-14T13:56:45;3.93;;;2.77;;
9771;SDS011;4925;52.588;13.370;2024-02-14T13:59:13;5.63;;;3.10;;
9771;SDS011;4925;52.588;13.370;2024-02-14T14:01:39;3.30;;;3.00;;
9771;SDS011;4925;52.588;13.370;2024-02-14T14:04:05;6.27;;;3.00;;
9771;SDS011;4925;52.588;13.370;2024-02-14T14:06:31;3.63;;;2.77;;
9771;SDS011;4925;52.588;13.370;2024-02-14T14:08:58;2.83;;;2.60;;
9771;SDS011;4925;52.588;13.370;2024-02-14T14:11:24;4.77;;;2.60;;
9771;SDS011;4925;52.588;13.370;2024-02-14T14:13:50;3.43;;;2.40;;
9771;SDS011;4925;52.588;13.370;2024-02-14T14:16:17;3.77;;;3.10;;
9771;SDS011;4925;52.588;13.370;2024-02-14T14:18:46;4.47;;;3.20;;
9771;SDS011;4925;52.588;13.370;2024-02-14T14:21:11;4.60;;;2.80;;
9771;SDS011;4925;52.588;13.370;2024-02-14T14:23:37;4.97;;;2.70;;
9771;SDS011;4925;52.588;13.370;2024-02-14T14:26:03;4.60;;;2.93;;
9771;SDS011;4925;52.588;13.370;2024-02-14T14:28:28;4.70;;;3.27;;
9771;SDS011;4925;52.588;13.370;2024-02-14T14:30:57;4.27;;;3.40;;
9771;SDS011;4925;52.588;13.370;2024-02-14T14:33:24;4.13;;;3.20;;
9771;SDS011;4925;52.588;13.370;2024-02-14T14:35:50;4.90;;;3.17;;
9771;SDS011;4925;52.588;13.370;2024-02-14T14:38:18;3.10;;;2.80;;
9771;SDS011;4925;52.588;13.370;2024-02-14T14:40:46;4.47;;;3.20;;
9771;SDS011;4925;52.588;13.370;2024-02-14T14:43:12;4.87;;;3.20;;
9771;SDS011;4925;52.588;13.370;2024-02-14T14:45:38;4.43;;;3.00;;
9771;SDS011;4925;52.588;13.370;2024-02-14T14:48:07;4.03;;;3.10;;
9771;SDS011;4925;52.588;13.370;2024-02-14T14:50:43;7.60;;;4.37;;
9771;SDS011;4925;52.588;13.370;2024-02-14T14:53:08;3.57;;;3.00;;
9771;SDS011;4925;52.588;13.370;2024-02-14T14:58:15;3.47;;;2.93;;
9771;SDS011;4925;52.588;13.370;2024-02-14T15:00:44;4.47;;;2.70;;
9771;SDS011;4925;52.588;13.370;2024-02-14T15:03:10;7.20;;;3.07;;